sensor_id;sensor_type;location;lat;lon;timestamp;P1;durP1;ratioP1;P2;durP2;ratioP2
62121;SDS011;48108;47.532;19.084;2023-05-10T04:00:45;3.78;;;3.25;;
62121;SDS011;48108;47.532;19.084;2023-05-10T04:03:48;3.50;;;3.12;;
62121;SDS011;48108;47.532;19.084;2023-05-10T04:06:51;5.47;;;3.42;;
62121;SDS011;48108;47.532;19.084;2023-05-10T04:09:54;3.47;;;2.92;;
62121;SDS011;48108;47.532;19.084;2023-05-10T04:12:57;4.12;;;3.42;;
62121;SDS011;48108;47.532;19.084;2023-05-10T04:16:00;3.67;;;3.22;;
62121;SDS011;48108;47.532;19.084;2023-05-10T04:19:03;4.82;;;3.50;;
62121;SDS011;48108;47.532;19.084;2023-05-10T04:22:06;6.12;;;3.40;;
62121;SDS011;48108;47.532;19.084;2023-05-10T04:25:09;4.97;;;3.30;;
62121;SDS011;48108;47.532;19.084;2023-05-10T04:28:12;5.82;;;3.65;;
62121;SDS011;48108;47.532;19.084;2023-05-10T04:31:14;6.47;;;3.10;;
62121;SDS011;48108;47.532;19.084;2023-05-10T04:34:17;5.12;;;3.37;;
62121;SDS011;48108;47.532;19.084;2023-05-10T04:37:21;4.50;;;3.60;;
62121;SDS011;48108;47.532;19.084;2023-05-10T04:40:25;5.12;;;3.45;;
62121;SDS011;48108;47.532;19.084;2023-05-10T04:43:28;5.00;;;3.37;;
62121;SDS011;48108;47.532;19.084;2023-05-10T04:46:31;5.15;;;3.58;;
62121;SDS011;48108;47.532;19.084;2023-05-10T04:49:34;7.50;;;3.65;;
62121;SDS011;48108;47.532;19.084;2023-05-10T04:52:37;4.20;;;3.55;;
62121;SDS011;48108;47.532;19.084;2023-05-10T04:55:39;7.37;;;3.75;;
62121;SDS011;48108;47.532;19.084;2023-05-10T04:58:43;5.85;;;3.80;;
62121;SDS011;48108;47.532;19.084;2023-05-10T05:01:45;4.15;;;3.40;;
62121;SDS011;48108;47.532;19.084;2023-05-10T05:04:48;4.75;;;3.90;;
62121;SDS011;48108;47.532;19.084;2023-05-10T05:07:51;6.32;;;4.05;;
62121;SDS011;48108;47.532;19.084;2023-05-10T05:10:54;4.53;;;3.58;;
62121;SDS011;48108;47.532;19.084;2023-05-10T05:13:57;5.03;;;3.67;;
62121;SDS011;48108;47.532;19.084;2023-05-10T05:17:01;6.45;;;3.80;;
62121;SDS011;48108;47.532;19.084;2023-05-10T05:20:04;4.85;;;3.92;;
62121;SDS011;48108;47.532;19.084;2023-05-10T05:23:08;4.93;;;3.87;;
62121;SDS011;48108;47.532;19.084;2023-05-10T05:26:11;5.47;;;3.67;;
62121;SDS011;48108;47.532;19.084;2023-05-10T05:29:14;4.65;;;3.90;;
62121;SDS011;48108;47.532;19.084;2023-05-10T05:32:16;7.95;;;4.50;;
62121;SDS011;48108;47.532;19.084;2023-05-10T05:35:19;5.60;;;3.97;;
62121;SDS011;48108;47.532;19.084;2023-05-10T05:38:23;6.65;;;4.22;;
62121;SDS011;48108;47.532;19.084;2023-05-10T05:41:26;8.43;;;4.25;;
62121;SDS011;48108;47.532;19.084;2023-05-10T05:44:28;5.25;;;3.80;;
62121;SDS011;48108;47.532;19.084;2023-05-10T05:47:31;8.52;;;4.20;;
62121;SDS011;48108;47.532;19.084;2023-05-10T05:50:34;5.25;;;3.83;;
62121;SDS011;48108;47.532;19.084;2023-05-10T05:53:38;3.95;;;3.42;;
62121;SDS011;48108;47.532;19.084;2023-05-10T05:56:40;7.65;;;4.05;;
62121;SDS011;48108;47.532;19.084;2023-05-10T05:59:43;7.80;;;4.15;;
62121;SDS011;48108;47.532;19.084;2023-05-10T06:02:46;5.00;;;3.90;;
62121;SDS011;48108;47.532;19.084;2023-05-10T06:05:49;6.05;;;4.00;;
62121;SDS011;48108;47.532;19.084;2023-05-10T06:08:52;4.30;;;3.90;;
62121;SDS011;48108;47.532;19.084;2023-05-10T06:11:55;6.07;;;4.12;;
62121;SDS011;48108;47.532;19.084;2023-05-10T06:14:58;5.07;;;3.95;;
62121;SDS011;48108;47.532;19.084;2023-05-10T06:18:00;4.35;;;3.72;;
62121;SDS011;48108;47.532;19.084;2023-05-10T06:21:03;4.18;;;3.58;;
62121;SDS011;48108;47.532;19.084;2023-05-10T06:24:06;5.97;;;4.12;;
62121;SDS011;48108;47.532;19.084;2023-05-10T06:27:09;4.47;;;3.90;;
62121;SDS011;48108;47.532;19.084;2023-05-10T06:30:12;6.62;;;3.83;;
62121;SDS011;48108;47.532;19.084;2023-05-10T06:33:16;4.80;;;3.60;;
62121;SDS011;48108;47.532;19.084;2023-05-10T06:36:20;7.62;;;4.20;;
62121;SDS011;48108;47.532;19.084;2023-05-10T06:39:23;6.75;;;4.15;;
62121;SDS011;48108;47.532;19.084;2023-05-10T06:42:26;7.50;;;4.15;;
62121;SDS011;48108;47.532;19.084;2023-05-10T06:45:29;4.70;;;3.72;;
62121;SDS011;48108;47.532;19.084;2023-05-10T06:48:32;5.72;;;4.20;;
62121;SDS011;48108;47.532;19.084;2023-05-10T06:51:36;4.82;;;3.92;;
62121;SDS011;48108;47.532;19.084;2023-05-10T06:54:59;6.72;;;3.83;;
62121;SDS011;48108;47.532;19.084;2023-05-10T06:58:02;4.37;;;3.78;;
62121;SDS011;48108;47.532;19.084;2023-05-10T07:01:05;4.30;;;3.80;;
62121;SDS011;48108;47.532;19.084;2023-05-10T07:04:08;4.28;;;3.65;;
62121;SDS011;48108;47.532;19.084;2023-05-10T07:07:11;5.40;;;4.10;;
62121;SDS011;48108;47.532;19.084;2023-05-10T07:10:14;5.07;;;3.80;;
62121;SDS011;48108;47.532;19.084;2023-05-10T07:13:25;8.43;;;4.10;;
62121;SDS011;48108;47.532;19.084;2023-05-10T07:16:28;4.30;;;3.85;;
62121;SDS011;48108;47.532;19.084;2023-05-10T07:19:31;4.85;;;4.20;;
62121;SDS011;48108;47.532;19.084;2023-05-10T07:22:34;5.18;;;3.85;;
62121;SDS011;48108;47.532;19.084;2023-05-10T07:25:37;4.65;;;4.05;;
62121;SDS011;48108;47.532;19.084;2023-05-10T07:28:40;5.75;;;3.95;;
62121;SDS011;48108;47.532;19.084;2023-05-10T07:31:43;6.37;;;4.22;;
62121;SDS011;48108;47.532;19.084;2023-05-10T07:34:46;6.37;;;3.53;;
62121;SDS011;48108;47.532;19.084;2023-05-10T07:37:49;4.20;;;3.80;;
62121;SDS011;48108;47.532;19.084;2023-05-10T07:40:52;7.97;;;3.67;;
62121;SDS011;48108;47.532;19.084;2023-05-10T07:43:55;4.43;;;3.80;;
62121;SDS011;48108;47.532;19.084;2023-05-10T07:46:57;5.43;;;4.00;;
62121;SDS011;48108;47.532;19.084;2023-05-10T07:50:00;6.12;;;3.58;;
62121;SDS011;48108;47.532;19.084;2023-05-10T07:53:04;4.30;;;3.80;;
62121;SDS011;48108;47.532;19.084;2023-05-10T07:56:21;5.70;;;3.90;;
62121;SDS011;48108;47.532;19.084;2023-05-10T07:59:29;5.43;;;3.70;;
62121;SDS011;48108;47.532;19.084;2023-05-10T08:02:32;3.72;;;3.42;;
62121;SDS011;48108;47.532;19.084;2023-05-10T08:05:40;6.22;;;3.55;;
62121;SDS011;48108;47.532;19.084;2023-05-10T08:08:43;6.35;;;3.90;;
62121;SDS011;48108;47.532;19.084;2023-05-10T08:11:50;6.68;;;3.55;;
62121;SDS011;48108;47.532;19.084;2023-05-10T08:14:53;4.93;;;3.00;;
62121;SDS011;48108;47.532;19.084;2023-05-10T08:17:56;4.03;;;3.10;;
62121;SDS011;48108;47.532;19.084;2023-05-10T08:20:59;3.35;;;3.05;;
62121;SDS011;48108;47.532;19.084;2023-05-10T08:24:02;3.75;;;3.40;;
62121;SDS011;48108;47.532;19.084;2023-05-10T08:27:05;5.45;;;3.10;;
62121;SDS011;48108;47.532;19.084;2023-05-10T08:30:08;3.87;;;3.10;;
62121;SDS011;48108;47.532;19.084;2023-05-10T08:33:11;3.37;;;2.72;;
62121;SDS011;48108;47.532;19.084;2023-05-10T08:36:14;4.62;;;3.12;;
62121;SDS011;48108;47.532;19.084;2023-05-10T08:39:21;5.25;;;3.30;;
62121;SDS011;48108;47.532;19.084;2023-05-10T08:42:33;3.80;;;3.42;;
62121;SDS011;48108;47.532;19.084;2023-05-10T08:45:41;3.83;;;3.35;;
62121;SDS011;48108;47.532;19.084;2023-05-10T08:48:46;4.18;;;3.10;;
62121;SDS011;48108;47.532;19.084;2023-05-10T08:51:52;3.87;;;3.30;;
62121;SDS011;48108;47.532;19.084;2023-05-10T08:54:58;4.57;;;3.05;;
62121;SDS011;48108;47.532;19.084;2023-05-10T08:58:03;3.78;;;3.33;;
62121;SDS011;48108;47.532;19.084;2023-05-10T09:01:06;7.50;;;3.70;;
62121;SDS011;48108;47.532;19.084;2023-05-10T09:04:10;4.20;;;3.50;;
62121;SDS011;48108;47.532;19.084;2023-05-10T09:07:14;5.40;;;3.40;;
62121;SDS011;48108;47.532;19.084;2023-05-10T09:10:18;6.25;;;3.50;;
62121;SDS011;48108;47.532;19.084;2023-05-10T09:13:22;3.40;;;3.10;;
62121;SDS011;48108;47.532;19.084;2023-05-10T09:16:26;3.40;;;3.10;;
62121;SDS011;48108;47.532;19.084;2023-05-10T09:19:29;4.75;;;3.50;;
62121;SDS011;48108;47.532;19.084;2023-05-10T09:22:33;4.35;;;2.87;;
62121;SDS011;48108;47.532;19.084;2023-05-10T09:25:37;10.07;;;3.30;;
62121;SDS011;48108;47.532;19.084;2023-05-10T09:32:11;4.43;;;3.28;;
62121;SDS011;48108;47.532;19.084;2023-05-10T09:35:26;4.15;;;3.25;;
62121;SDS011;48108;47.532;19.084;2023-05-10T09:38:36;3.87;;;3.30;;
62121;SDS011;48108;47.532;19.084;2023-05-10T09:41:55;3.37;;;2.97;;
62121;SDS011;48108;47.532;19.084;2023-05-10T09:45:05;3.28;;;2.97;;
62121;SDS011;48108;47.532;19.084;2023-05-10T09:48:09;3.67;;;2.80;;
62121;SDS011;48108;47.532;19.084;2023-05-10T09:51:21;3.33;;;2.92;;
62121;SDS011;48108;47.532;19.084;2023-05-10T09:54:24;3.47;;;3.17;;
62121;SDS011;48108;47.532;19.084;2023-05-10T09:57:28;3.47;;;3.17;;
62121;SDS011;48108;47.532;19.084;2023-05-10T10:00:35;3.97;;;3.00;;
62121;SDS011;48108;47.532;19.084;2023-05-10T10:03:42;4.20;;;2.78;;
62121;SDS011;48108;47.532;19.084;2023-05-10T10:06:45;4.18;;;2.80;;
62121;SDS011;48108;47.532;19.084;2023-05-10T10:09:48;3.00;;;2.80;;
62121;SDS011;48108;47.532;19.084;2023-05-10T10:12:52;3.05;;;2.70;;
62121;SDS011;48108;47.532;19.084;2023-05-10T10:15:56;3.20;;;2.90;;
62121;SDS011;48108;47.532;19.084;2023-05-10T10:18:59;3.70;;;2.90;;
62121;SDS011;48108;47.532;19.084;2023-05-10T10:22:06;3.08;;;2.83;;
62121;SDS011;48108;47.532;19.084;2023-05-10T10:25:09;4.15;;;2.95;;
62121;SDS011;48108;47.532;19.084;2023-05-10T10:31:26;4.25;;;2.67;;
62121;SDS011;48108;47.532;19.084;2023-05-10T10:34:39;2.60;;;2.40;;
62121;SDS011;48108;47.532;19.084;2023-05-10T10:37:43;3.00;;;2.20;;
62121;SDS011;48108;47.532;19.084;2023-05-10T10:40:47;2.40;;;2.20;;
62121;SDS011;48108;47.532;19.084;2023-05-10T10:47:36;5.53;;;2.47;;
62121;SDS011;48108;47.532;19.084;2023-05-10T10:50:45;2.70;;;2.50;;
62121;SDS011;48108;47.532;19.084;2023-05-10T10:53:49;7.32;;;2.47;;
62121;SDS011;48108;47.532;19.084;2023-05-10T10:57:11;2.08;;;1.92;;
62121;SDS011;48108;47.532;19.084;2023-05-10T11:03:23;3.45;;;2.40;;
62121;SDS011;48108;47.532;19.084;2023-05-10T11:06:34;2.22;;;2.05;;
62121;SDS011;48108;47.532;19.084;2023-05-10T11:09:39;2.20;;;2.00;;
62121;SDS011;48108;47.532;19.084;2023-05-10T11:12:52;2.03;;;1.92;;
62121;SDS011;48108;47.532;19.084;2023-05-10T11:19:15;2.17;;;1.98;;
62121;SDS011;48108;47.532;19.084;2023-05-10T11:22:18;4.12;;;2.00;;
62121;SDS011;48108;47.532;19.084;2023-05-10T11:25:28;3.25;;;1.90;;
62121;SDS011;48108;47.532;19.084;2023-05-10T11:28:31;2.25;;;2.05;;
62121;SDS011;48108;47.532;19.084;2023-05-10T11:31:34;5.47;;;1.92;;
62121;SDS011;48108;47.532;19.084;2023-05-10T11:34:38;3.35;;;1.90;;
62121;SDS011;48108;47.532;19.084;2023-05-10T11:37:41;3.85;;;1.80;;
62121;SDS011;48108;47.532;19.084;2023-05-10T11:40:45;2.97;;;2.05;;
62121;SDS011;48108;47.532;19.084;2023-05-10T11:43:49;3.33;;;1.62;;
62121;SDS011;48108;47.532;19.084;2023-05-10T11:46:53;2.15;;;1.50;;
62121;SDS011;48108;47.532;19.084;2023-05-10T11:49:56;1.60;;;1.50;;
62121;SDS011;48108;47.532;19.084;2023-05-10T11:53:00;2.72;;;1.70;;
62121;SDS011;48108;47.532;19.084;2023-05-10T11:56:07;2.33;;;1.58;;
62121;SDS011;48108;47.532;19.084;2023-05-10T11:59:13;1.77;;;1.67;;
62121;SDS011;48108;47.532;19.084;2023-05-10T12:02:17;2.03;;;1.92;;
62121;SDS011;48108;47.532;19.084;2023-05-10T12:05:20;2.20;;;2.00;;
62121;SDS011;48108;47.532;19.084;2023-05-10T12:08:24;1.92;;;1.83;;
62121;SDS011;48108;47.532;19.084;2023-05-10T12:11:29;2.12;;;1.92;;
62121;SDS011;48108;47.532;19.084;2023-05-10T12:14:33;3.30;;;1.70;;
62121;SDS011;48108;47.532;19.084;2023-05-10T12:17:38;2.53;;;1.80;;
62121;SDS011;48108;47.532;19.084;2023-05-10T12:20:44;3.78;;;2.08;;
62121;SDS011;48108;47.532;19.084;2023-05-10T12:23:51;2.65;;;2.00;;
62121;SDS011;48108;47.532;19.084;2023-05-10T12:26:55;3.55;;;1.83;;
62121;SDS011;48108;47.532;19.084;2023-05-10T12:30:01;1.95;;;1.83;;
62121;SDS011;48108;47.532;19.084;2023-05-10T12:33:09;1.85;;;1.65;;
62121;SDS011;48108;47.532;19.084;2023-05-10T12:36:13;2.62;;;2.10;;
62121;SDS011;48108;47.532;19.084;2023-05-10T12:39:17;2.00;;;1.80;;
62121;SDS011;48108;47.532;19.084;2023-05-10T12:42:20;3.92;;;1.85;;
62121;SDS011;48108;47.532;19.084;2023-05-10T12:45:23;1.90;;;1.70;;
62121;SDS011;48108;47.532;19.084;2023-05-10T12:48:26;2.33;;;1.85;;
62121;SDS011;48108;47.532;19.084;2023-05-10T12:51:30;3.87;;;1.80;;
62121;SDS011;48108;47.532;19.084;2023-05-10T12:54:33;2.00;;;1.90;;
62121;SDS011;48108;47.532;19.084;2023-05-10T12:57:36;3.05;;;1.90;;
62121;SDS011;48108;47.532;19.084;2023-05-10T13:00:39;1.95;;;1.77;;
62121;SDS011;48108;47.532;19.084;2023-05-10T13:03:41;1.90;;;1.80;;
62121;SDS011;48108;47.532;19.084;2023-05-10T13:06:45;2.22;;;1.95;;
62121;SDS011;48108;47.532;19.084;2023-05-10T13:09:48;2.00;;;1.90;;
62121;SDS011;48108;47.532;19.084;2023-05-10T13:12:51;2.05;;;1.58;;
62121;SDS011;48108;47.532;19.084;2023-05-10T13:15:54;2.62;;;1.67;;
62121;SDS011;48108;47.532;19.084;2023-05-10T13:18:57;2.62;;;1.40;;
62121;SDS011;48108;47.532;19.084;2023-05-10T13:22:00;1.65;;;1.50;;
62121;SDS011;48108;47.532;19.084;2023-05-10T13:25:04;2.15;;;1.60;;
62121;SDS011;48108;47.532;19.084;2023-05-10T13:28:07;1.67;;;1.25;;
62121;SDS011;48108;47.532;19.084;2023-05-10T13:31:11;1.40;;;1.23;;
62121;SDS011;48108;47.532;19.084;2023-05-10T13:34:14;1.62;;;1.40;;
62121;SDS011;48108;47.532;19.084;2023-05-10T13:37:17;1.40;;;1.30;;
62121;SDS011;48108;47.532;19.084;2023-05-10T13:40:20;1.90;;;1.30;;
62121;SDS011;48108;47.532;19.084;2023-05-10T13:43:23;1.40;;;1.30;;
62121;SDS011;48108;47.532;19.084;2023-05-10T13:46:26;1.58;;;1.30;;
62121;SDS011;48108;47.532;19.084;2023-05-10T13:49:29;1.70;;;1.60;;
62121;SDS011;48108;47.532;19.084;2023-05-10T13:52:32;1.40;;;1.30;;
62121;SDS011;48108;47.532;19.084;2023-05-10T13:55:35;1.60;;;1.50;;
62121;SDS011;48108;47.532;19.084;2023-05-10T13:58:38;3.08;;;1.37;;
62121;SDS011;48108;47.532;19.084;2023-05-10T14:01:41;1.50;;;1.40;;
62121;SDS011;48108;47.532;19.084;2023-05-10T14:04:45;1.35;;;1.25;;
62121;SDS011;48108;47.532;19.084;2023-05-10T14:07:49;1.98;;;1.40;;
62121;SDS011;48108;47.532;19.084;2023-05-10T14:10:53;1.50;;;1.40;;
62121;SDS011;48108;47.532;19.084;2023-05-10T14:13:58;2.33;;;1.37;;
62121;SDS011;48108;47.532;19.084;2023-05-10T14:17:01;6.20;;;1.35;;
62121;SDS011;48108;47.532;19.084;2023-05-10T14:20:04;3.60;;;1.55;;
62121;SDS011;48108;47.532;19.084;2023-05-10T14:23:07;1.42;;;1.30;;
62121;SDS011;48108;47.532;19.084;2023-05-10T14:26:13;5.80;;;1.42;;
62121;SDS011;48108;47.532;19.084;2023-05-10T14:29:16;1.95;;;1.50;;
62121;SDS011;48108;47.532;19.084;2023-05-10T14:32:18;1.37;;;1.27;;
62121;SDS011;48108;47.532;19.084;2023-05-10T14:35:24;2.35;;;1.48;;
62121;SDS011;48108;47.532;19.084;2023-05-10T14:38:27;1.27;;;1.15;;
62121;SDS011;48108;47.532;19.084;2023-05-10T14:41:30;1.20;;;1.20;;
62121;SDS011;48108;47.532;19.084;2023-05-10T14:44:33;1.35;;;1.15;;
62121;SDS011;48108;47.532;19.084;2023-05-10T14:47:36;3.40;;;1.42;;
62121;SDS011;48108;47.532;19.084;2023-05-10T14:50:38;2.40;;;1.50;;
62121;SDS011;48108;47.532;19.084;2023-05-10T14:53:42;1.30;;;1.20;;
62121;SDS011;48108;47.532;19.084;2023-05-10T14:56:47;3.10;;;1.87;;
62121;SDS011;48108;47.532;19.084;2023-05-10T14:59:52;2.70;;;1.50;;
62121;SDS011;48108;47.532;19.084;2023-05-10T15:02:55;5.18;;;1.50;;
62121;SDS011;48108;47.532;19.084;2023-05-10T15:05:59;1.50;;;1.30;;
62121;SDS011;48108;47.532;19.084;2023-05-10T15:09:02;3.33;;;1.40;;
62121;SDS011;48108;47.532;19.084;2023-05-10T15:12:08;2.17;;;1.48;;
62121;SDS011;48108;47.532;19.084;2023-05-10T15:15:11;4.97;;;1.60;;
62121;SDS011;48108;47.532;19.084;2023-05-10T15:18:14;1.58;;;1.30;;
62121;SDS011;48108;47.532;19.084;2023-05-10T15:21:17;3.20;;;1.70;;
62121;SDS011;48108;47.532;19.084;2023-05-10T15:24:22;3.40;;;1.17;;
62121;SDS011;48108;47.532;19.084;2023-05-10T15:27:25;3.10;;;1.35;;
62121;SDS011;48108;47.532;19.084;2023-05-10T15:30:28;1.60;;;1.15;;
62121;SDS011;48108;47.532;19.084;2023-05-10T15:33:31;1.45;;;1.20;;
62121;SDS011;48108;47.532;19.084;2023-05-10T15:36:34;1.48;;;1.37;;
62121;SDS011;48108;47.532;19.084;2023-05-10T15:39:36;1.23;;;1.10;;
62121;SDS011;48108;47.532;19.084;2023-05-10T15:42:39;1.92;;;1.73;;
62121;SDS011;48108;47.532;19.084;2023-05-10T15:45:42;2.28;;;1.35;;
62121;SDS011;48108;47.532;19.084;2023-05-10T15:48:45;1.40;;;1.30;;
62121;SDS011;48108;47.532;19.084;2023-05-10T15:51:47;2.70;;;1.45;;
62121;SDS011;48108;47.532;19.084;2023-05-10T15:54:51;2.35;;;1.33;;
